sensor_id;sensor_type;location;lat;lon;timestamp;P1;durP1;ratioP1;P2;durP2;ratioP2
61960;SDS011;47923;42.506;24.192;2024-01-30T00:00:19;26.50;;;16.23;;
61960;SDS011;47923;42.506;24.192;2024-01-30T00:02:47;65.30;;;40.10;;
61960;SDS011;47923;42.506;24.192;2024-01-30T00:05:13;51.13;;;30.88;;
61960;SDS011;47923;42.506;24.192;2024-01-30T00:07:39;40.67;;;26.13;;
61960;SDS011;47923;42.506;24.192;2024-01-30T00:10:11;17.00;;;9.13;;
61960;SDS011;47923;42.506;24.192;2024-01-30T00:12:40;21.88;;;12.82;;
61960;SDS011;47923;42.506;24.192;2024-01-30T00:15:06;18.25;;;11.02;;
61960;SDS011;47923;42.506;24.192;2024-01-30T00:17:37;16.23;;;9.25;;
61960;SDS011;47923;42.506;24.192;2024-01-30T00:20:03;16.30;;;10.20;;
61960;SDS011;47923;42.506;24.192;2024-01-30T00:22:31;18.10;;;8.23;;
61960;SDS011;47923;42.506;24.192;2024-01-30T00:24:57;14.93;;;9.25;;
61960;SDS011;47923;42.506;24.192;2024-01-30T00:27:25;26.60;;;16.88;;
61960;SDS011;47923;42.506;24.192;2024-01-30T00:30:01;27.05;;;18.52;;
61960;SDS011;47923;42.506;24.192;2024-01-30T00:32:28;35.50;;;23.02;;
61960;SDS011;47923;42.506;24.192;2024-01-30T00:35:00;20.02;;;11.55;;
61960;SDS011;47923;42.506;24.192;2024-01-30T00:37:26;22.27;;;14.70;;
61960;SDS011;47923;42.506;24.192;2024-01-30T00:39:56;22.70;;;13.27;;
61960;SDS011;47923;42.506;24.192;2024-01-30T00:42:21;26.50;;;15.80;;
61960;SDS011;47923;42.506;24.192;2024-01-30T00:44:48;26.33;;;17.25;;
61960;SDS011;47923;42.506;24.192;2024-01-30T00:47:16;24.23;;;17.05;;
61960;SDS011;47923;42.506;24.192;2024-01-30T00:49:43;21.38;;;14.50;;
61960;SDS011;47923;42.506;24.192;2024-01-30T00:52:09;20.05;;;13.23;;
61960;SDS011;47923;42.506;24.192;2024-01-30T00:54:35;31.48;;;22.58;;
61960;SDS011;47923;42.506;24.192;2024-01-30T00:57:02;30.58;;;21.90;;
61960;SDS011;47923;42.506;24.192;2024-01-30T00:59:28;28.80;;;20.38;;
61960;SDS011;47923;42.506;24.192;2024-01-30T01:01:54;32.03;;;18.25;;
61960;SDS011;47923;42.506;24.192;2024-01-30T01:04:21;32.90;;;20.77;;
61960;SDS011;47923;42.506;24.192;2024-01-30T01:06:47;30.48;;;20.38;;
61960;SDS011;47923;42.506;24.192;2024-01-30T01:09:13;30.52;;;19.48;;
61960;SDS011;47923;42.506;24.192;2024-01-30T01:11:38;27.67;;;17.65;;
61960;SDS011;47923;42.506;24.192;2024-01-30T01:14:04;41.85;;;26.27;;
61960;SDS011;47923;42.506;24.192;2024-01-30T01:16:30;49.70;;;33.25;;
61960;SDS011;47923;42.506;24.192;2024-01-30T01:18:59;35.80;;;23.83;;
61960;SDS011;47923;42.506;24.192;2024-01-30T01:21:27;34.17;;;22.08;;
61960;SDS011;47923;42.506;24.192;2024-01-30T01:23:52;30.17;;;20.00;;
61960;SDS011;47923;42.506;24.192;2024-01-30T01:26:18;32.05;;;20.02;;
61960;SDS011;47923;42.506;24.192;2024-01-30T01:28:44;31.55;;;18.88;;
61960;SDS011;47923;42.506;24.192;2024-01-30T01:31:13;18.38;;;11.25;;
61960;SDS011;47923;42.506;24.192;2024-01-30T01:33:39;17.70;;;10.20;;
61960;SDS011;47923;42.506;24.192;2024-01-30T01:36:07;17.77;;;10.93;;
61960;SDS011;47923;42.506;24.192;2024-01-30T01:38:33;18.70;;;11.35;;
61960;SDS011;47923;42.506;24.192;2024-01-30T01:41:01;19.02;;;12.35;;
61960;SDS011;47923;42.506;24.192;2024-01-30T01:43:28;23.40;;;11.35;;
61960;SDS011;47923;42.506;24.192;2024-01-30T01:45:55;12.93;;;7.07;;
61960;SDS011;47923;42.506;24.192;2024-01-30T01:48:21;12.77;;;6.03;;
61960;SDS011;47923;42.506;24.192;2024-01-30T01:50:47;20.83;;;12.95;;
61960;SDS011;47923;42.506;24.192;2024-01-30T01:53:17;29.40;;;17.90;;
61960;SDS011;47923;42.506;24.192;2024-01-30T01:55:43;38.90;;;25.33;;
61960;SDS011;47923;42.506;24.192;2024-01-30T01:58:14;45.53;;;26.55;;
61960;SDS011;47923;42.506;24.192;2024-01-30T02:00:45;42.47;;;25.92;;
61960;SDS011;47923;42.506;24.192;2024-01-30T02:03:14;39.35;;;24.17;;
61960;SDS011;47923;42.506;24.192;2024-01-30T02:05:44;41.80;;;23.42;;
61960;SDS011;47923;42.506;24.192;2024-01-30T02:08:11;30.27;;;19.25;;
61960;SDS011;47923;42.506;24.192;2024-01-30T02:10:39;30.35;;;19.85;;
61960;SDS011;47923;42.506;24.192;2024-01-30T02:13:08;28.08;;;18.15;;
61960;SDS011;47923;42.506;24.192;2024-01-30T02:15:34;33.08;;;18.80;;
61960;SDS011;47923;42.506;24.192;2024-01-30T02:18:01;33.47;;;20.33;;
61960;SDS011;47923;42.506;24.192;2024-01-30T02:20:26;35.90;;;21.52;;
61960;SDS011;47923;42.506;24.192;2024-01-30T02:22:55;29.23;;;18.30;;
61960;SDS011;47923;42.506;24.192;2024-01-30T02:25:33;72.70;;;33.95;;
61960;SDS011;47923;42.506;24.192;2024-01-30T02:28:04;84.55;;;40.17;;
61960;SDS011;47923;42.506;24.192;2024-01-30T02:30:29;53.47;;;27.85;;
61960;SDS011;47923;42.506;24.192;2024-01-30T02:32:55;38.80;;;21.63;;
61960;SDS011;47923;42.506;24.192;2024-01-30T02:35:21;38.03;;;21.00;;
61960;SDS011;47923;42.506;24.192;2024-01-30T02:37:49;38.92;;;22.27;;
61960;SDS011;47923;42.506;24.192;2024-01-30T02:40:16;33.35;;;19.98;;
61960;SDS011;47923;42.506;24.192;2024-01-30T02:42:41;28.92;;;15.98;;
61960;SDS011;47923;42.506;24.192;2024-01-30T02:45:07;28.52;;;16.73;;
61960;SDS011;47923;42.506;24.192;2024-01-30T02:47:34;34.03;;;19.42;;
61960;SDS011;47923;42.506;24.192;2024-01-30T02:50:01;35.58;;;21.63;;
61960;SDS011;47923;42.506;24.192;2024-01-30T02:52:26;37.42;;;23.60;;
61960;SDS011;47923;42.506;24.192;2024-01-30T02:54:55;38.83;;;24.02;;
61960;SDS011;47923;42.506;24.192;2024-01-30T02:57:22;31.98;;;18.70;;
61960;SDS011;47923;42.506;24.192;2024-01-30T02:59:59;24.23;;;12.88;;
61960;SDS011;47923;42.506;24.192;2024-01-30T03:02:27;28.85;;;17.73;;
61960;SDS011;47923;42.506;24.192;2024-01-30T03:04:55;35.85;;;21.65;;
61960;SDS011;47923;42.506;24.192;2024-01-30T03:07:23;32.63;;;21.42;;
61960;SDS011;47923;42.506;24.192;2024-01-30T03:09:49;44.53;;;29.88;;
61960;SDS011;47923;42.506;24.192;2024-01-30T03:12:17;31.38;;;17.08;;
61960;SDS011;47923;42.506;24.192;2024-01-30T03:14:46;25.60;;;14.07;;
61960;SDS011;47923;42.506;24.192;2024-01-30T03:17:15;38.30;;;23.40;;
61960;SDS011;47923;42.506;24.192;2024-01-30T03:19:44;44.80;;;28.48;;
61960;SDS011;47923;42.506;24.192;2024-01-30T03:22:15;35.42;;;24.10;;
61960;SDS011;47923;42.506;24.192;2024-01-30T03:24:43;27.92;;;16.67;;
61960;SDS011;47923;42.506;24.192;2024-01-30T03:27:09;26.35;;;15.77;;
61960;SDS011;47923;42.506;24.192;2024-01-30T03:29:39;37.92;;;20.50;;
61960;SDS011;47923;42.506;24.192;2024-01-30T03:32:11;36.53;;;24.13;;
61960;SDS011;47923;42.506;24.192;2024-01-30T03:34:40;44.72;;;25.45;;
61960;SDS011;47923;42.506;24.192;2024-01-30T03:37:06;15.18;;;7.90;;
61960;SDS011;47923;42.506;24.192;2024-01-30T03:39:32;11.82;;;5.68;;
61960;SDS011;47923;42.506;24.192;2024-01-30T03:42:05;10.23;;;5.57;;
61960;SDS011;47923;42.506;24.192;2024-01-30T03:44:32;10.57;;;5.75;;
61960;SDS011;47923;42.506;24.192;2024-01-30T03:46:58;11.00;;;6.93;;
61960;SDS011;47923;42.506;24.192;2024-01-30T03:49:25;10.45;;;6.00;;
61960;SDS011;47923;42.506;24.192;2024-01-30T03:51:51;10.32;;;4.78;;
61960;SDS011;47923;42.506;24.192;2024-01-30T03:54:18;17.70;;;9.93;;
61960;SDS011;47923;42.506;24.192;2024-01-30T03:56:44;24.08;;;13.23;;
61960;SDS011;47923;42.506;24.192;2024-01-30T03:59:15;29.60;;;19.13;;
61960;SDS011;47923;42.506;24.192;2024-01-30T04:01:50;46.50;;;30.23;;
61960;SDS011;47923;42.506;24.192;2024-01-30T04:04:19;33.00;;;20.10;;
61960;SDS011;47923;42.506;24.192;2024-01-30T04:06:45;23.70;;;13.90;;
61960;SDS011;47923;42.506;24.192;2024-01-30T04:09:14;46.38;;;28.33;;
61960;SDS011;47923;42.506;24.192;2024-01-30T04:14:20;16.52;;;9.77;;
61960;SDS011;47923;42.506;24.192;2024-01-30T04:16:45;20.05;;;11.23;;
61960;SDS011;47923;42.506;24.192;2024-01-30T04:19:12;24.98;;;14.20;;
61960;SDS011;47923;42.506;24.192;2024-01-30T04:21:42;25.05;;;15.43;;
61960;SDS011;47923;42.506;24.192;2024-01-30T04:24:09;23.45;;;13.75;;
61960;SDS011;47923;42.506;24.192;2024-01-30T04:26:35;34.95;;;20.33;;
61960;SDS011;47923;42.506;24.192;2024-01-30T04:29:04;24.85;;;15.60;;
61960;SDS011;47923;42.506;24.192;2024-01-30T04:31:29;19.63;;;11.60;;
61960;SDS011;47923;42.506;24.192;2024-01-30T04:33:55;20.98;;;14.30;;
61960;SDS011;47923;42.506;24.192;2024-01-30T04:36:21;17.05;;;11.23;;
61960;SDS011;47923;42.506;24.192;2024-01-30T04:38:50;21.40;;;12.73;;
61960;SDS011;47923;42.506;24.192;2024-01-30T04:41:19;20.33;;;11.00;;
61960;SDS011;47923;42.506;24.192;2024-01-30T04:43:45;14.50;;;9.50;;
61960;SDS011;47923;42.506;24.192;2024-01-30T04:46:11;17.85;;;11.88;;
61960;SDS011;47923;42.506;24.192;2024-01-30T04:48:37;47.58;;;29.95;;
61960;SDS011;47923;42.506;24.192;2024-01-30T04:51:04;60.47;;;38.13;;
61960;SDS011;47923;42.506;24.192;2024-01-30T04:53:30;14.32;;;8.70;;
61960;SDS011;47923;42.506;24.192;2024-01-30T04:55:59;45.05;;;29.35;;
61960;SDS011;47923;42.506;24.192;2024-01-30T04:58:26;43.05;;;28.27;;
61960;SDS011;47923;42.506;24.192;2024-01-30T05:00:54;44.45;;;29.52;;
61960;SDS011;47923;42.506;24.192;2024-01-30T05:03:21;42.92;;;29.00;;
61960;SDS011;47923;42.506;24.192;2024-01-30T05:05:47;43.20;;;29.95;;
61960;SDS011;47923;42.506;24.192;2024-01-30T05:08:16;48.20;;;29.27;;
61960;SDS011;47923;42.506;24.192;2024-01-30T05:10:42;42.05;;;26.25;;
61960;SDS011;47923;42.506;24.192;2024-01-30T05:13:07;44.97;;;26.58;;
61960;SDS011;47923;42.506;24.192;2024-01-30T05:15:33;33.85;;;19.35;;
61960;SDS011;47923;42.506;24.192;2024-01-30T05:17:59;31.65;;;17.23;;
61960;SDS011;47923;42.506;24.192;2024-01-30T05:20:26;29.58;;;16.35;;
61960;SDS011;47923;42.506;24.192;2024-01-30T05:22:55;41.20;;;21.92;;
61960;SDS011;47923;42.506;24.192;2024-01-30T05:25:21;58.53;;;31.17;;
61960;SDS011;47923;42.506;24.192;2024-01-30T05:27:47;42.20;;;23.10;;
61960;SDS011;47923;42.506;24.192;2024-01-30T05:30:16;46.13;;;29.98;;
61960;SDS011;47923;42.506;24.192;2024-01-30T05:32:44;136.15;;;71.80;;
61960;SDS011;47923;42.506;24.192;2024-01-30T05:35:10;84.90;;;46.83;;
61960;SDS011;47923;42.506;24.192;2024-01-30T05:37:37;42.30;;;26.50;;
61960;SDS011;47923;42.506;24.192;2024-01-30T05:40:04;62.47;;;38.20;;
61960;SDS011;47923;42.506;24.192;2024-01-30T05:42:30;65.95;;;42.08;;
61960;SDS011;47923;42.506;24.192;2024-01-30T05:44:55;48.47;;;31.42;;
61960;SDS011;47923;42.506;24.192;2024-01-30T05:47:24;60.13;;;40.58;;
61960;SDS011;47923;42.506;24.192;2024-01-30T05:49:49;57.83;;;38.42;;
61960;SDS011;47923;42.506;24.192;2024-01-30T05:52:15;63.17;;;41.50;;
61960;SDS011;47923;42.506;24.192;2024-01-30T05:54:41;81.25;;;52.60;;
61960;SDS011;47923;42.506;24.192;2024-01-30T05:57:07;55.65;;;38.83;;
61960;SDS011;47923;42.506;24.192;2024-01-30T05:59:33;54.83;;;37.33;;
61960;SDS011;47923;42.506;24.192;2024-01-30T06:01:58;51.67;;;34.67;;
61960;SDS011;47923;42.506;24.192;2024-01-30T06:04:28;58.10;;;37.60;;
61960;SDS011;47923;42.506;24.192;2024-01-30T06:06:53;64.88;;;41.38;;
61960;SDS011;47923;42.506;24.192;2024-01-30T06:09:19;59.45;;;37.58;;
61960;SDS011;47923;42.506;24.192;2024-01-30T06:11:44;56.45;;;35.38;;
61960;SDS011;47923;42.506;24.192;2024-01-30T06:14:10;50.80;;;35.47;;
61960;SDS011;47923;42.506;24.192;2024-01-30T06:16:36;57.75;;;38.13;;
61960;SDS011;47923;42.506;24.192;2024-01-30T06:19:05;48.92;;;33.10;;
61960;SDS011;47923;42.506;24.192;2024-01-30T06:21:31;57.40;;;35.33;;
61960;SDS011;47923;42.506;24.192;2024-01-30T06:23:57;59.83;;;37.83;;
61960;SDS011;47923;42.506;24.192;2024-01-30T06:26:23;178.52;;;92.50;;
61960;SDS011;47923;42.506;24.192;2024-01-30T06:28:51;168.23;;;88.32;;
61960;SDS011;47923;42.506;24.192;2024-01-30T06:31:17;176.55;;;94.00;;
61960;SDS011;47923;42.506;24.192;2024-01-30T06:33:49;95.95;;;54.60;;
61960;SDS011;47923;42.506;24.192;2024-01-30T06:36:17;71.43;;;41.45;;
61960;SDS011;47923;42.506;24.192;2024-01-30T06:38:47;34.65;;;21.70;;
61960;SDS011;47923;42.506;24.192;2024-01-30T06:41:15;31.83;;;18.77;;
61960;SDS011;47923;42.506;24.192;2024-01-30T06:43:50;31.27;;;19.65;;
61960;SDS011;47923;42.506;24.192;2024-01-30T06:46:16;35.83;;;22.52;;
61960;SDS011;47923;42.506;24.192;2024-01-30T06:48:45;35.65;;;21.85;;
61960;SDS011;47923;42.506;24.192;2024-01-30T06:51:13;36.28;;;21.88;;
61960;SDS011;47923;42.506;24.192;2024-01-30T06:53:44;46.20;;;28.90;;
61960;SDS011;47923;42.506;24.192;2024-01-30T06:56:12;40.60;;;24.77;;
61960;SDS011;47923;42.506;24.192;2024-01-30T06:58:38;40.70;;;24.33;;
61960;SDS011;47923;42.506;24.192;2024-01-30T07:01:11;40.75;;;27.13;;
61960;SDS011;47923;42.506;24.192;2024-01-30T07:03:36;43.67;;;29.80;;
61960;SDS011;47923;42.506;24.192;2024-01-30T07:06:03;100.18;;;65.10;;
61960;SDS011;47923;42.506;24.192;2024-01-30T07:08:29;148.77;;;97.45;;
61960;SDS011;47923;42.506;24.192;2024-01-30T07:10:54;145.68;;;93.78;;
61960;SDS011;47923;42.506;24.192;2024-01-30T07:13:22;117.00;;;79.25;;
61960;SDS011;47923;42.506;24.192;2024-01-30T07:15:48;75.60;;;52.40;;
61960;SDS011;47923;42.506;24.192;2024-01-30T07:18:14;47.35;;;33.53;;
61960;SDS011;47923;42.506;24.192;2024-01-30T07:20:40;41.83;;;28.65;;
61960;SDS011;47923;42.506;24.192;2024-01-30T07:23:11;46.00;;;30.60;;
61960;SDS011;47923;42.506;24.192;2024-01-30T07:25:40;46.50;;;32.40;;
61960;SDS011;47923;42.506;24.192;2024-01-30T07:28:06;48.53;;;30.35;;
61960;SDS011;47923;42.506;24.192;2024-01-30T07:30:33;46.92;;;30.92;;
61960;SDS011;47923;42.506;24.192;2024-01-30T07:32:59;47.58;;;31.83;;
61960;SDS011;47923;42.506;24.192;2024-01-30T07:35:24;51.03;;;34.45;;
61960;SDS011;47923;42.506;24.192;2024-01-30T07:37:50;54.38;;;34.75;;
61960;SDS011;47923;42.506;24.192;2024-01-30T07:40:21;47.30;;;29.88;;
61960;SDS011;47923;42.506;24.192;2024-01-30T07:42:47;43.22;;;25.25;;
61960;SDS011;47923;42.506;24.192;2024-01-30T07:45:13;42.28;;;25.73;;
61960;SDS011;47923;42.506;24.192;2024-01-30T07:47:38;44.33;;;28.10;;
61960;SDS011;47923;42.506;24.192;2024-01-30T07:50:04;42.65;;;28.73;;
61960;SDS011;47923;42.506;24.192;2024-01-30T07:52:32;33.15;;;24.92;;
61960;SDS011;47923;42.506;24.192;2024-01-30T07:54:57;37.70;;;25.63;;
61960;SDS011;47923;42.506;24.192;2024-01-30T07:57:23;38.95;;;28.95;;
61960;SDS011;47923;42.506;24.192;2024-01-30T07:59:50;39.83;;;28.05;;
61960;SDS011;47923;42.506;24.192;2024-01-30T08:02:19;37.40;;;26.00;;
61960;SDS011;47923;42.506;24.192;2024-01-30T08:04:45;36.60;;;27.15;;
61960;SDS011;47923;42.506;24.192;2024-01-30T08:07:13;29.73;;;22.10;;
61960;SDS011;47923;42.506;24.192;2024-01-30T08:09:39;20.52;;;15.65;;
61960;SDS011;47923;42.506;24.192;2024-01-30T08:12:16;28.50;;;20.50;;
61960;SDS011;47923;42.506;24.192;2024-01-30T08:14:47;23.40;;;17.45;;
61960;SDS011;47923;42.506;24.192;2024-01-30T08:17:13;21.02;;;14.27;;
61960;SDS011;47923;42.506;24.192;2024-01-30T08:19:38;24.60;;;18.73;;
61960;SDS011;47923;42.506;24.192;2024-01-30T08:22:04;32.28;;;26.73;;
61960;SDS011;47923;42.506;24.192;2024-01-30T08:24:32;41.10;;;34.22;;
61960;SDS011;47923;42.506;24.192;2024-01-30T08:26:57;44.22;;;35.53;;
61960;SDS011;47923;42.506;24.192;2024-01-30T08:29:37;54.15;;;43.47;;
61960;SDS011;47923;42.506;24.192;2024-01-30T08:32:05;42.00;;;34.50;;
61960;SDS011;47923;42.506;24.192;2024-01-30T08:34:31;41.85;;;33.65;;
61960;SDS011;47923;42.506;24.192;2024-01-30T08:36:58;42.60;;;34.17;;
61960;SDS011;47923;42.506;24.192;2024-01-30T08:39:24;45.25;;;34.45;;
61960;SDS011;47923;42.506;24.192;2024-01-30T08:41:49;41.67;;;30.70;;
61960;SDS011;47923;42.506;24.192;2024-01-30T08:44:19;109.13;;;76.75;;
61960;SDS011;47923;42.506;24.192;2024-01-30T08:46:45;156.43;;;105.18;;
61960;SDS011;47923;42.506;24.192;2024-01-30T08:49:11;54.38;;;39.42;;
61960;SDS011;47923;42.506;24.192;2024-01-30T08:51:39;53.72;;;36.58;;
61960;SDS011;47923;42.506;24.192;2024-01-30T08:54:05;56.35;;;38.75;;
61960;SDS011;47923;42.506;24.192;2024-01-30T08:56:33;44.95;;;30.13;;
61960;SDS011;47923;42.506;24.192;2024-01-30T08:58:59;43.60;;;31.13;;
61960;SDS011;47923;42.506;24.192;2024-01-30T09:01:28;17.17;;;10.73;;
61960;SDS011;47923;42.506;24.192;2024-01-30T09:03:54;19.70;;;12.27;;
61960;SDS011;47923;42.506;24.192;2024-01-30T09:06:20;22.52;;;15.15;;
61960;SDS011;47923;42.506;24.192;2024-01-30T09:08:47;14.63;;;8.23;;
61960;SDS011;47923;42.506;24.192;2024-01-30T09:11:15;12.23;;;6.53;;
61960;SDS011;47923;42.506;24.192;2024-01-30T09:13:41;8.35;;;3.63;;
61960;SDS011;47923;42.506;24.192;2024-01-30T09:16:07;6.97;;;3.83;;
61960;SDS011;47923;42.506;24.192;2024-01-30T09:18:34;6.03;;;2.78;;
61960;SDS011;47923;42.506;24.192;2024-01-30T09:21:04;6.57;;;2.85;;
61960;SDS011;47923;42.506;24.192;2024-01-30T09:23:32;5.95;;;3.25;;
61960;SDS011;47923;42.506;24.192;2024-01-30T09:26:01;8.18;;;5.10;;
61960;SDS011;47923;42.506;24.192;2024-01-30T09:28:26;16.55;;;10.65;;
61960;SDS011;47923;42.506;24.192;2024-01-30T09:30:54;6.85;;;3.80;;
61960;SDS011;47923;42.506;24.192;2024-01-30T09:33:22;10.50;;;5.40;;
61960;SDS011;47923;42.506;24.192;2024-01-30T09:35:50;7.35;;;3.90;;
61960;SDS011;47923;42.506;24.192;2024-01-30T09:38:18;9.18;;;6.13;;
61960;SDS011;47923;42.506;24.192;2024-01-30T09:40:46;15.35;;;4.90;;
61960;SDS011;47923;42.506;24.192;2024-01-30T09:43:23;15.63;;;6.50;;
61960;SDS011;47923;42.506;24.192;2024-01-30T09:45:51;5.18;;;2.92;;
61960;SDS011;47923;42.506;24.192;2024-01-30T09:48:22;5.78;;;2.92;;
61960;SDS011;47923;42.506;24.192;2024-01-30T09:50:48;40.08;;;24.75;;
61960;SDS011;47923;42.506;24.192;2024-01-30T09:53:20;5.90;;;3.13;;
61960;SDS011;47923;42.506;24.192;2024-01-30T09:55:47;6.32;;;3.85;;
61960;SDS011;47923;42.506;24.192;2024-01-30T09:58:16;6.28;;;3.58;;
61960;SDS011;47923;42.506;24.192;2024-01-30T10:00:42;6.80;;;4.00;;
61960;SDS011;47923;42.506;24.192;2024-01-30T10:03:08;6.50;;;3.80;;
61960;SDS011;47923;42.506;24.192;2024-01-30T10:05:40;7.10;;;3.30;;
61960;SDS011;47923;42.506;24.192;2024-01-30T10:08:06;8.48;;;4.03;;
61960;SDS011;47923;42.506;24.192;2024-01-30T10:10:35;7.47;;;4.78;;
61960;SDS011;47923;42.506;24.192;2024-01-30T10:13:04;8.88;;;4.88;;
61960;SDS011;47923;42.506;24.192;2024-01-30T10:15:29;9.65;;;5.68;;
61960;SDS011;47923;42.506;24.192;2024-01-30T10:17:55;7.95;;;4.57;;
61960;SDS011;47923;42.506;24.192;2024-01-30T10:20:21;9.18;;;4.88;;
61960;SDS011;47923;42.506;24.192;2024-01-30T10:22:47;6.32;;;3.42;;
61960;SDS011;47923;42.506;24.192;2024-01-30T10:25:15;6.57;;;3.53;;
61960;SDS011;47923;42.506;24.192;2024-01-30T10:27:51;11.02;;;3.88;;
61960;SDS011;47923;42.506;24.192;2024-01-30T10:30:21;7.63;;;3.30;;
61960;SDS011;47923;42.506;24.192;2024-01-30T10:32:55;6.78;;;2.88;;
61960;SDS011;47923;42.506;24.192;2024-01-30T10:37:51;8.13;;;2.20;;
61960;SDS011;47923;42.506;24.192;2024-01-30T10:40:20;5.43;;;2.35;;
61960;SDS011;47923;42.506;24.192;2024-01-30T10:42:56;4.38;;;2.10;;
61960;SDS011;47923;42.506;24.192;2024-01-30T10:45:22;5.30;;;1.70;;
61960;SDS011;47923;42.506;24.192;2024-01-30T10:47:50;6.25;;;2.58;;
61960;SDS011;47923;42.506;24.192;2024-01-30T10:50:25;6.70;;;2.97;;
61960;SDS011;47923;42.506;24.192;2024-01-30T10:52:55;5.95;;;2.55;;
61960;SDS011;47923;42.506;24.192;2024-01-30T10:55:23;5.35;;;2.80;;
61960;SDS011;47923;42.506;24.192;2024-01-30T10:57:53;5.60;;;2.58;;
61960;SDS011;47923;42.506;24.192;2024-01-30T11:00:19;6.75;;;2.97;;
61960;SDS011;47923;42.506;24.192;2024-01-30T11:02:52;7.03;;;2.90;;
61960;SDS011;47923;42.506;24.192;2024-01-30T11:05:26;6.47;;;2.47;;
61960;SDS011;47923;42.506;24.192;2024-01-30T11:07:56;8.25;;;4.03;;
61960;SDS011;47923;42.506;24.192;2024-01-30T11:10:21;6.20;;;2.30;;
61960;SDS011;47923;42.506;24.192;2024-01-30T11:12:52;5.72;;;2.90;;
61960;SDS011;47923;42.506;24.192;2024-01-30T11:15:18;9.85;;;4.70;;
61960;SDS011;47923;42.506;24.192;2024-01-30T11:20:25;4.90;;;1.98;;
61960;SDS011;47923;42.506;24.192;2024-01-30T11:22:54;12.13;;;4.32;;
61960;SDS011;47923;42.506;24.192;2024-01-30T11:25:21;5.53;;;2.40;;
61960;SDS011;47923;42.506;24.192;2024-01-30T11:27:51;7.07;;;4.22;;
61960;SDS011;47923;42.506;24.192;2024-01-30T11:30:26;4.53;;;2.60;;
61960;SDS011;47923;42.506;24.192;2024-01-30T11:35:43;4.85;;;2.60;;
61960;SDS011;47923;42.506;24.192;2024-01-30T11:38:28;6.88;;;3.13;;
61960;SDS011;47923;42.506;24.192;2024-01-30T11:40:56;5.72;;;2.80;;
61960;SDS011;47923;42.506;24.192;2024-01-30T11:43:26;4.70;;;2.40;;
61960;SDS011;47923;42.506;24.192;2024-01-30T11:45:52;6.75;;;3.28;;
61960;SDS011;47923;42.506;24.192;2024-01-30T11:48:17;5.72;;;3.20;;
61960;SDS011;47923;42.506;24.192;2024-01-30T11:50:43;7.18;;;4.07;;
61960;SDS011;47923;42.506;24.192;2024-01-30T11:53:12;8.00;;;3.83;;
61960;SDS011;47923;42.506;24.192;2024-01-30T11:55:37;4.85;;;2.13;;
61960;SDS011;47923;42.506;24.192;2024-01-30T11:58:04;9.13;;;4.63;;
61960;SDS011;47923;42.506;24.192;2024-01-30T12:00:30;6.22;;;2.03;;
61960;SDS011;47923;42.506;24.192;2024-01-30T12:02:58;16.45;;;4.93;;
61960;SDS011;47923;42.506;24.192;2024-01-30T12:05:25;5.95;;;2.55;;
61960;SDS011;47923;42.506;24.192;2024-01-30T12:07:53;6.57;;;2.72;;
61960;SDS011;47923;42.506;24.192;2024-01-30T12:10:20;8.02;;;4.03;;
61960;SDS011;47923;42.506;24.192;2024-01-30T12:12:47;8.45;;;3.75;;
61960;SDS011;47923;42.506;24.192;2024-01-30T12:15:14;7.25;;;2.75;;
61960;SDS011;47923;42.506;24.192;2024-01-30T12:17:43;8.80;;;4.03;;
61960;SDS011;47923;42.506;24.192;2024-01-30T12:20:09;8.25;;;4.13;;
61960;SDS011;47923;42.506;24.192;2024-01-30T12:22:40;9.55;;;4.22;;
61960;SDS011;47923;42.506;24.192;2024-01-30T12:25:14;9.13;;;4.82;;
61960;SDS011;47923;42.506;24.192;2024-01-30T12:27:44;8.10;;;2.60;;
61960;SDS011;47923;42.506;24.192;2024-01-30T12:30:12;7.25;;;3.47;;
61960;SDS011;47923;42.506;24.192;2024-01-30T12:32:47;6.05;;;3.10;;
61960;SDS011;47923;42.506;24.192;2024-01-30T12:35:16;5.25;;;2.75;;
61960;SDS011;47923;42.506;24.192;2024-01-30T12:37:43;7.88;;;3.17;;
61960;SDS011;47923;42.506;24.192;2024-01-30T12:40:10;7.70;;;3.45;;
61960;SDS011;47923;42.506;24.192;2024-01-30T12:42:38;7.70;;;3.83;;
61960;SDS011;47923;42.506;24.192;2024-01-30T12:45:04;7.82;;;3.42;;
61960;SDS011;47923;42.506;24.192;2024-01-30T12:47:32;9.07;;;4.28;;
61960;SDS011;47923;42.506;24.192;2024-01-30T12:49:58;5.60;;;2.53;;
61960;SDS011;47923;42.506;24.192;2024-01-30T12:52:25;17.38;;;3.53;;
61960;SDS011;47923;42.506;24.192;2024-01-30T12:54:53;8.95;;;4.50;;
61960;SDS011;47923;42.506;24.192;2024-01-30T12:57:22;5.18;;;2.60;;
61960;SDS011;47923;42.506;24.192;2024-01-30T12:59:49;14.50;;;7.25;;
61960;SDS011;47923;42.506;24.192;2024-01-30T13:02:23;8.70;;;4.53;;
61960;SDS011;47923;42.506;24.192;2024-01-30T13:04:54;11.70;;;5.07;;
61960;SDS011;47923;42.506;24.192;2024-01-30T13:07:19;10.82;;;4.68;;
61960;SDS011;47923;42.506;24.192;2024-01-30T13:09:45;13.23;;;5.72;;
61960;SDS011;47923;42.506;24.192;2024-01-30T13:12:17;9.48;;;4.88;;
61960;SDS011;47923;42.506;24.192;2024-01-30T13:14:42;7.95;;;3.47;;
61960;SDS011;47923;42.506;24.192;2024-01-30T13:17:08;7.18;;;2.78;;
61960;SDS011;47923;42.506;24.192;2024-01-30T13:19:34;5.38;;;2.60;;
61960;SDS011;47923;42.506;24.192;2024-01-30T13:22:02;5.82;;;2.67;;
61960;SDS011;47923;42.506;24.192;2024-01-30T13:24:28;6.13;;;2.60;;
61960;SDS011;47923;42.506;24.192;2024-01-30T13:26:56;17.95;;;7.63;;
61960;SDS011;47923;42.506;24.192;2024-01-30T13:29:27;7.72;;;3.55;;
61960;SDS011;47923;42.506;24.192;2024-01-30T13:31:56;7.13;;;3.45;;
61960;SDS011;47923;42.506;24.192;2024-01-30T13:34:24;7.43;;;3.88;;
61960;SDS011;47923;42.506;24.192;2024-01-30T13:36:50;5.40;;;2.25;;
61960;SDS011;47923;42.506;24.192;2024-01-30T13:39:17;10.43;;;4.32;;
61960;SDS011;47923;42.506;24.192;2024-01-30T13:41:43;7.60;;;3.45;;
61960;SDS011;47923;42.506;24.192;2024-01-30T13:44:09;5.38;;;2.33;;
61960;SDS011;47923;42.506;24.192;2024-01-30T13:46:37;6.18;;;2.78;;
61960;SDS011;47923;42.506;24.192;2024-01-30T13:49:06;3.45;;;1.55;;
61960;SDS011;47923;42.506;24.192;2024-01-30T13:51:33;5.10;;;2.00;;
61960;SDS011;47923;42.506;24.192;2024-01-30T13:53:59;9.88;;;4.10;;
61960;SDS011;47923;42.506;24.192;2024-01-30T13:56:24;11.63;;;5.95;;
61960;SDS011;47923;42.506;24.192;2024-01-30T13:58:53;8.80;;;4.35;;
61960;SDS011;47923;42.506;24.192;2024-01-30T14:01:23;12.80;;;6.85;;
61960;SDS011;47923;42.506;24.192;2024-01-30T14:03:49;33.33;;;17.75;;
61960;SDS011;47923;42.506;24.192;2024-01-30T14:06:23;7.10;;;3.35;;
61960;SDS011;47923;42.506;24.192;2024-01-30T14:08:52;7.65;;;2.92;;
61960;SDS011;47923;42.506;24.192;2024-01-30T14:11:20;7.85;;;3.58;;
61960;SDS011;47923;42.506;24.192;2024-01-30T14:13:46;10.00;;;5.32;;
61960;SDS011;47923;42.506;24.192;2024-01-30T14:16:11;22.33;;;9.40;;
61960;SDS011;47923;42.506;24.192;2024-01-30T14:18:38;14.15;;;6.68;;
61960;SDS011;47923;42.506;24.192;2024-01-30T14:21:03;4.53;;;2.08;;
61960;SDS011;47923;42.506;24.192;2024-01-30T14:23:29;18.98;;;8.57;;
61960;SDS011;47923;42.506;24.192;2024-01-30T14:25:55;11.25;;;5.30;;
61960;SDS011;47923;42.506;24.192;2024-01-30T14:28:20;14.50;;;6.07;;